createdAt,value
2022-11-22T00:00:25.730Z,8.10
2022-11-22T00:02:58.119Z,8.10
2022-11-22T00:05:30.929Z,8.10
2022-11-22T00:08:03.905Z,8.10
2022-11-22T00:10:36.698Z,8.10
2022-11-22T00:13:09.189Z,8.10
2022-11-22T00:15:41.728Z,8.10
2022-11-22T00:18:14.246Z,8.10
2022-11-22T00:20:47.036Z,8.00
2022-11-22T00:23:19.699Z,8.00
2022-11-22T00:25:52.307Z,8.00
2022-11-22T00:28:24.855Z,8.00
2022-11-22T00:30:57.467Z,8.00
2022-11-22T00:33:34.816Z,8.00
2022-11-22T00:36:07.518Z,8.00
2022-11-22T00:38:40.094Z,8.00
2022-11-22T00:41:12.638Z,8.10
2022-11-22T00:43:45.126Z,8.10
2022-11-22T00:46:17.642Z,8.10
2022-11-22T00:48:50.766Z,8.10
2022-11-22T00:51:23.451Z,8.10
2022-11-22T00:53:56.037Z,8.00
2022-11-22T00:56:28.706Z,8.00
2022-11-22T00:59:01.625Z,8.00
2022-11-22T01:01:34.260Z,8.00
2022-11-22T01:04:07.065Z,7.90
2022-11-22T01:06:39.667Z,8.00
2022-11-22T01:09:19.437Z,8.00
2022-11-22T01:11:52.323Z,8.00
2022-11-22T01:14:24.917Z,8.00
2022-11-22T01:16:57.491Z,8.00
2022-11-22T01:19:30.642Z,8.00
2022-11-22T01:22:03.294Z,7.90
2022-11-22T01:24:35.829Z,7.90
2022-11-22T01:27:08.351Z,8.00
2022-11-22T01:29:40.958Z,8.00
2022-11-22T01:32:13.560Z,8.00
2022-11-22T01:34:46.083Z,8.00
2022-11-22T01:37:18.694Z,7.90
2022-11-22T01:39:51.205Z,7.90
2022-11-22T01:42:24.046Z,7.90
2022-11-22T01:45:16.602Z,7.90
2022-11-22T01:47:49.191Z,7.80
2022-11-22T01:50:21.955Z,7.90
2022-11-22T01:52:57.817Z,7.90
2022-11-22T01:55:30.934Z,7.90
2022-11-22T01:58:03.781Z,7.90
2022-11-22T02:00:39.118Z,8.00
2022-11-22T02:03:14.483Z,7.90
2022-11-22T02:05:47.107Z,7.90
2022-11-22T02:08:28.842Z,7.90
2022-11-22T02:11:03.855Z,7.90
2022-11-22T02:13:40.117Z,7.90
2022-11-22T02:16:12.947Z,7.90
2022-11-22T02:18:45.449Z,7.90
2022-11-22T02:21:17.997Z,7.80
2022-11-22T02:24:05.277Z,7.80
2022-11-22T02:26:37.870Z,7.80
2022-11-22T02:29:10.491Z,7.80
2022-11-22T02:31:46.204Z,7.80
2022-11-22T02:34:18.894Z,7.80
2022-11-22T02:36:55.090Z,7.90
2022-11-22T02:39:31.874Z,7.90
2022-11-22T02:42:04.709Z,7.90
2022-11-22T02:44:37.853Z,7.90
2022-11-22T02:47:10.334Z,7.90
2022-11-22T02:49:43.229Z,7.90
2022-11-22T02:52:18.643Z,7.90
2022-11-22T02:54:51.325Z,7.90
2022-11-22T02:57:24.266Z,7.90
2022-11-22T02:59:56.908Z,7.90
2022-11-22T03:02:29.427Z,8.00
2022-11-22T03:05:01.992Z,8.00
2022-11-22T03:07:34.562Z,8.00
2022-11-22T03:10:07.415Z,8.00
2022-11-22T03:12:40.494Z,8.00
2022-11-22T03:15:13.141Z,8.00
2022-11-22T03:17:45.662Z,8.00
2022-11-22T03:20:18.420Z,8.00
2022-11-22T03:22:50.886Z,8.00
2022-11-22T03:25:23.510Z,8.00
2022-11-22T03:27:56.156Z,8.00
2022-11-22T03:30:28.695Z,7.90
2022-11-22T03:33:01.168Z,7.90
2022-11-22T03:35:33.786Z,7.90
2022-11-22T03:38:07.251Z,7.90
2022-11-22T03:40:39.906Z,7.90
2022-11-22T03:43:12.446Z,7.90
2022-11-22T03:45:46.646Z,7.90
2022-11-22T03:48:19.709Z,7.90
2022-11-22T03:50:52.375Z,7.90
2022-11-22T03:53:24.909Z,8.00
2022-11-22T03:55:57.469Z,8.00
2022-11-22T03:58:30.262Z,8.00
2022-11-22T04:01:02.910Z,8.00
2022-11-22T04:03:35.472Z,8.10
2022-11-22T04:06:08.087Z,8.10
2022-11-22T04:08:40.889Z,8.10
2022-11-22T04:11:13.545Z,8.10
2022-11-22T04:14:01.215Z,8.10
2022-11-22T04:16:34.001Z,8.10
2022-11-22T04:19:06.610Z,8.10
2022-11-22T04:21:39.330Z,8.10
2022-11-22T04:24:28.248Z,8.00
2022-11-22T04:27:00.900Z,8.00
2022-11-22T04:29:33.817Z,8.00
2022-11-22T04:32:21.850Z,8.00
2022-11-22T04:34:54.568Z,8.00
2022-11-22T04:37:27.280Z,8.00
2022-11-22T04:39:59.869Z,8.00
2022-11-22T04:42:48.454Z,7.90
2022-11-22T04:45:21.018Z,8.00
2022-11-22T04:48:01.124Z,8.00
2022-11-22T04:50:49.267Z,7.90
2022-11-22T04:53:21.869Z,7.90
2022-11-22T04:55:54.843Z,7.80
2022-11-22T04:58:27.469Z,7.80
2022-11-22T05:01:00.074Z,7.80
2022-11-22T05:03:32.888Z,7.80
2022-11-22T05:06:06.045Z,7.80
2022-11-22T05:08:38.829Z,7.80
2022-11-22T05:11:12.180Z,7.80
2022-11-22T05:13:45.052Z,7.80
2022-11-22T05:16:17.485Z,7.80
2022-11-22T05:18:59.647Z,7.80
2022-11-22T05:21:35.923Z,7.70
2022-11-22T05:24:08.912Z,7.70
2022-11-22T05:26:42.368Z,7.70
2022-11-22T05:29:14.915Z,7.60
2022-11-22T05:31:51.376Z,7.60
2022-11-22T05:34:24.473Z,7.50
2022-11-22T05:36:57.042Z,7.60
2022-11-22T05:39:29.923Z,7.60
2022-11-22T05:42:02.515Z,7.60
2022-11-22T05:44:35.057Z,7.60
2022-11-22T05:47:08.002Z,7.50
2022-11-22T05:49:40.997Z,7.50
2022-11-22T05:52:13.630Z,7.50
2022-11-22T05:54:46.393Z,7.50
2022-11-22T05:57:19.252Z,7.50
2022-11-22T05:59:51.972Z,7.50
2022-11-22T06:02:24.787Z,7.50
2022-11-22T06:04:57.485Z,7.50
2022-11-22T06:07:30.613Z,7.50
2022-11-22T06:10:03.457Z,7.50
2022-11-22T06:12:36.166Z,7.50
2022-11-22T06:15:09.753Z,7.50
2022-11-22T06:17:42.987Z,7.50
2022-11-22T06:20:16.133Z,7.50
2022-11-22T06:22:48.624Z,7.40
2022-11-22T06:25:21.517Z,7.50
2022-11-22T06:27:53.974Z,7.50
2022-11-22T06:30:26.570Z,7.50
2022-11-22T06:32:59.064Z,7.50
2022-11-22T06:35:31.850Z,7.50
2022-11-22T06:38:04.419Z,7.50
2022-11-22T06:40:37.128Z,7.50
2022-11-22T06:43:09.766Z,7.50
2022-11-22T06:45:42.458Z,7.40
2022-11-22T06:48:15.110Z,7.50
2022-11-22T06:50:47.941Z,7.50
2022-11-22T06:53:45.210Z,7.50
2022-11-22T06:56:16.822Z,7.50
2022-11-22T06:58:51.361Z,7.50
2022-11-22T07:01:27.220Z,7.50
2022-11-22T07:04:00.842Z,7.50
2022-11-22T07:06:36.252Z,7.50
2022-11-22T07:09:11.256Z,7.50
2022-11-22T07:11:44.225Z,7.50
2022-11-22T07:14:17.038Z,7.50
2022-11-22T07:16:49.689Z,7.50
2022-11-22T07:19:22.284Z,7.50
2022-11-22T07:21:55.546Z,7.50
2022-11-22T07:24:29.180Z,7.50
2022-11-22T07:27:02.708Z,7.60
2022-11-22T07:29:35.243Z,7.50
2022-11-22T07:32:07.946Z,7.60
2022-11-22T07:34:40.851Z,7.60
2022-11-22T07:37:13.687Z,7.60
2022-11-22T07:39:46.230Z,7.60
2022-11-22T07:42:23.647Z,7.60
2022-11-22T07:44:59.609Z,7.60
2022-11-22T07:47:32.895Z,7.70
2022-11-22T07:50:06.351Z,7.60
2022-11-22T07:52:38.995Z,7.60
2022-11-22T07:55:14.244Z,7.60
2022-11-22T07:57:47.316Z,7.60
2022-11-22T08:00:20.957Z,7.70
2022-11-22T08:02:53.899Z,7.60
2022-11-22T08:05:27.592Z,7.70
2022-11-22T08:08:00.857Z,7.60
2022-11-22T08:10:33.450Z,7.70
2022-11-22T08:13:06.500Z,7.70
2022-11-22T08:15:39.199Z,7.60
2022-11-22T08:18:11.942Z,7.70
2022-11-22T08:20:44.759Z,7.70
2022-11-22T08:23:17.488Z,7.70
2022-11-22T08:25:50.519Z,7.70
2022-11-22T08:28:23.467Z,7.70
2022-11-22T08:31:07.466Z,7.70
2022-11-22T08:33:40.901Z,7.70
2022-11-22T08:36:13.649Z,7.70
2022-11-22T08:38:47.004Z,7.70
2022-11-22T08:41:19.715Z,7.70
2022-11-22T08:43:53.191Z,7.70
2022-11-22T08:46:25.722Z,7.70
2022-11-22T08:48:58.601Z,7.80
2022-11-22T08:51:31.673Z,7.70
2022-11-22T08:54:04.880Z,7.80
2022-11-22T08:56:37.651Z,7.70
2022-11-22T08:59:10.454Z,7.70
2022-11-22T09:01:43.216Z,7.70
2022-11-22T09:04:16.630Z,7.70
2022-11-22T09:09:45.757Z,7.70
2022-11-22T09:12:18.680Z,7.70
2022-11-22T09:14:51.647Z,7.60
2022-11-22T09:17:24.176Z,7.60
2022-11-22T09:19:56.933Z,7.60
2022-11-22T09:22:29.642Z,7.60
2022-11-22T09:25:04.976Z,7.60
2022-11-22T09:27:40.051Z,7.60
2022-11-22T09:30:13.251Z,7.60
2022-11-22T09:32:45.935Z,7.70
2022-11-22T09:35:20.435Z,7.70
2022-11-22T09:37:53.038Z,7.70
2022-11-22T09:40:25.872Z,7.70
2022-11-22T09:43:01.695Z,7.70
2022-11-22T09:45:51.334Z,7.70
2022-11-22T09:48:45.454Z,7.70
2022-11-22T09:51:23.977Z,7.70
2022-11-22T09:54:07.828Z,7.70
2022-11-22T09:56:42.256Z,7.70
2022-11-22T09:59:23.399Z,7.70
2022-11-22T10:01:56.657Z,7.70
2022-11-22T10:04:38.982Z,7.80
2022-11-22T10:07:22.609Z,7.80
2022-11-22T10:10:11.841Z,7.70
2022-11-22T10:12:51.178Z,7.70
2022-11-22T10:15:43.256Z,7.70
2022-11-22T10:18:23.412Z,7.70
2022-11-22T10:20:56.103Z,7.80
2022-11-22T10:23:31.919Z,7.80
2022-11-22T10:26:32.923Z,7.80
2022-11-22T10:29:31.210Z,7.80
2022-11-22T10:32:27.827Z,7.80
2022-11-22T10:35:14.612Z,7.80
2022-11-22T10:37:55.600Z,7.80
2022-11-22T10:40:54.614Z,7.80
2022-11-22T10:43:34.557Z,7.80
2022-11-22T10:46:37.188Z,7.80
2022-11-22T10:49:25.539Z,7.80
2022-11-22T10:52:17.042Z,7.80
2022-11-22T10:54:59.233Z,7.90
2022-11-22T10:57:50.993Z,7.90
2022-11-22T11:00:25.788Z,7.90
2022-11-22T11:03:23.622Z,7.90
2022-11-22T11:09:54.834Z,7.90
2022-11-22T11:11:56.475Z,8.00
2022-11-22T11:14:48.746Z,8.00
2022-11-22T11:17:30.067Z,8.00
2022-11-22T11:20:14.857Z,8.00
2022-11-22T11:25:45.453Z,8.00
2022-11-22T11:28:24.439Z,8.00
2022-11-22T11:31:03.190Z,8.00
2022-11-22T11:33:38.917Z,8.00
2022-11-22T11:36:15.890Z,8.00
2022-11-22T11:38:53.068Z,8.00
2022-11-22T11:41:37.333Z,8.00
2022-11-22T11:44:34.954Z,8.10
2022-11-22T11:47:21.800Z,8.10
2022-11-22T11:49:56.088Z,8.10
2022-11-22T11:52:32.939Z,8.10
2022-11-22T11:55:18.651Z,8.10
2022-11-22T11:57:53.090Z,8.10
2022-11-22T12:00:28.653Z,8.10
2022-11-22T12:03:10.839Z,8.10
2022-11-22T12:05:43.616Z,8.10
2022-11-22T12:08:32.515Z,8.20
2022-11-22T12:11:24.807Z,8.20
2022-11-22T12:14:20.119Z,8.20
2022-11-22T12:17:02.125Z,8.20
2022-11-22T12:20:08.206Z,8.30
2022-11-22T12:22:49.838Z,8.30
2022-11-22T12:25:40.662Z,8.30
2022-11-22T12:28:20.554Z,8.30
2022-11-22T12:31:00.608Z,8.30
2022-11-22T12:33:40.301Z,8.30
2022-11-22T12:36:27.085Z,8.30
2022-11-22T12:39:06.502Z,8.30
2022-11-22T12:41:41.982Z,8.30
2022-11-22T12:44:19.931Z,8.30
2022-11-22T12:46:58.743Z,8.30
2022-11-22T12:49:36.019Z,8.40
2022-11-22T12:52:32.325Z,8.30
2022-11-22T12:55:12.775Z,8.40
2022-11-22T12:57:55.411Z,8.40
2022-11-22T13:00:32.518Z,8.40
2022-11-22T13:03:15.009Z,8.40
2022-11-22T13:05:54.438Z,8.40
2022-11-22T13:08:31.838Z,8.30
2022-11-22T13:11:26.660Z,8.40
2022-11-22T13:14:09.256Z,8.40
2022-11-22T13:16:42.604Z,8.40
2022-11-22T13:19:19.043Z,8.40
2022-11-22T13:22:09.212Z,8.40
2022-11-22T13:25:07.681Z,8.40
2022-11-22T13:27:46.597Z,8.40
2022-11-22T13:30:22.464Z,8.30
2022-11-22T13:32:58.553Z,8.40
2022-11-22T13:35:37.976Z,8.40
2022-11-22T13:38:18.324Z,8.40
2022-11-22T13:40:52.308Z,8.40
2022-11-22T13:43:49.794Z,8.40
2022-11-22T13:46:54.752Z,8.40
2022-11-22T13:49:48.551Z,8.40
2022-11-22T13:52:23.142Z,8.40
2022-11-22T13:54:57.711Z,8.40
2022-11-22T13:57:36.448Z,8.40
2022-11-22T14:00:14.190Z,8.40
2022-11-22T14:02:52.193Z,8.40
2022-11-22T14:05:31.065Z,8.40
2022-11-22T14:08:06.772Z,8.40
2022-11-22T14:10:55.498Z,8.40
2022-11-22T14:13:53.760Z,8.40
2022-11-22T14:16:34.718Z,8.40
2022-11-22T14:19:28.599Z,8.40
2022-11-22T14:22:12.498Z,8.40
2022-11-22T14:24:50.916Z,8.40
2022-11-22T14:27:33.892Z,8.30
2022-11-22T14:30:37.835Z,8.40
2022-11-22T14:33:18.076Z,8.40
2022-11-22T14:36:07.677Z,8.40
2022-11-22T14:38:41.937Z,8.40
2022-11-22T14:41:31.301Z,8.40
2022-11-22T14:44:26.524Z,8.40
2022-11-22T14:47:12.466Z,8.30
2022-11-22T14:49:48.993Z,8.40
2022-11-22T14:52:28.771Z,8.40
2022-11-22T14:55:06.369Z,8.40
2022-11-22T14:57:39.383Z,8.40
2022-11-22T15:00:36.908Z,8.30
2022-11-22T15:03:42.872Z,8.40
2022-11-22T15:09:14.764Z,8.40
2022-11-22T15:09:48.991Z,8.40
2022-11-22T15:12:43.070Z,8.40
2022-11-22T15:57:36.642Z,8.20
2022-11-22T16:00:19.196Z,8.30
2022-11-22T16:02:57.445Z,8.20
2022-11-22T16:06:06.350Z,8.20
2022-11-22T16:08:32.808Z,8.20
2022-11-22T16:11:06.093Z,8.20
2022-11-22T16:13:41.216Z,8.30
2022-11-22T16:16:15.043Z,8.30
2022-11-22T16:18:48.720Z,8.30
2022-11-22T16:21:25.466Z,8.30
2022-11-22T16:24:18.884Z,8.30
2022-11-22T16:26:56.795Z,8.20
2022-11-22T16:29:33.418Z,8.20
2022-11-22T16:32:13.355Z,8.20
2022-11-22T16:34:51.617Z,8.20
2022-11-22T16:37:37.821Z,8.30
2022-11-22T16:40:14.880Z,8.20
2022-11-22T16:42:48.318Z,8.20
2022-11-22T16:45:23.805Z,8.20
2022-11-22T16:48:16.682Z,8.30
2022-11-22T16:50:58.223Z,8.30
2022-11-22T16:53:40.419Z,8.20
2022-11-22T16:56:24.295Z,8.30
2022-11-22T16:58:58.387Z,8.30
2022-11-22T17:01:34.822Z,8.20
2022-11-22T17:04:10.609Z,8.30
2022-11-22T17:06:47.400Z,8.30
2022-11-22T17:09:21.112Z,8.30
2022-11-22T17:11:55.870Z,8.30
2022-11-22T17:14:30.677Z,8.20
2022-11-22T17:17:04.711Z,8.30
2022-11-22T17:19:52.653Z,8.20
2022-11-22T17:22:27.889Z,8.30
2022-11-22T17:25:00.918Z,8.20
2022-11-22T17:27:34.157Z,8.20
2022-11-22T17:30:08.897Z,8.20
2022-11-22T17:32:41.417Z,8.20
2022-11-22T17:35:14.249Z,8.20
2022-11-22T17:37:47.847Z,8.20
2022-11-22T17:40:20.800Z,8.20
2022-11-22T17:42:55.838Z,8.20
2022-11-22T17:45:29.918Z,8.20
2022-11-22T17:48:02.483Z,8.20
2022-11-22T17:50:35.374Z,8.20
2022-11-22T17:53:08.025Z,8.20
2022-11-22T17:56:09.006Z,8.20
2022-11-22T17:58:34.804Z,8.20
2022-11-22T18:01:14.210Z,8.20
2022-11-22T18:03:49.503Z,8.20
2022-11-22T18:06:22.051Z,8.20
2022-11-22T18:08:56.608Z,8.30
2022-11-22T18:11:29.603Z,8.20
2022-11-22T18:14:04.926Z,8.30
2022-11-22T18:16:39.651Z,8.30
2022-11-22T18:19:12.316Z,8.20
2022-11-22T18:21:44.918Z,8.30
2022-11-22T18:24:19.147Z,8.40
2022-11-22T18:26:51.860Z,8.30
2022-11-22T18:29:41.619Z,8.40
2022-11-22T18:32:15.670Z,8.40
2022-11-22T18:34:49.664Z,8.40
2022-11-22T18:37:22.304Z,8.40
2022-11-22T18:39:55.300Z,8.40
2022-11-22T18:42:27.899Z,8.50
2022-11-22T18:45:00.616Z,8.50
2022-11-22T18:47:33.242Z,8.50
2022-11-22T18:50:12.160Z,8.50
2022-11-22T18:52:45.518Z,8.50
2022-11-22T18:55:18.723Z,8.40
2022-11-22T18:57:51.465Z,8.40
2022-11-22T19:00:24.083Z,8.40
2022-11-22T19:02:57.174Z,8.40
2022-11-22T19:05:29.874Z,8.40
2022-11-22T19:08:02.772Z,8.40
2022-11-22T19:10:35.900Z,8.40
2022-11-22T19:13:08.424Z,8.40
2022-11-22T19:15:41.202Z,8.40
2022-11-22T19:18:13.794Z,8.40
2022-11-22T19:20:55.253Z,8.40
2022-11-22T19:23:30.120Z,8.40
2022-11-22T19:26:05.959Z,8.30
2022-11-22T19:28:38.715Z,8.30
2022-11-22T19:31:14.230Z,8.30
2022-11-22T19:33:47.881Z,8.40
2022-11-22T19:36:32.308Z,8.30
2022-11-22T19:39:10.724Z,8.30
2022-11-22T19:41:45.377Z,8.30
2022-11-22T19:44:18.287Z,8.40
2022-11-22T19:46:57.031Z,8.40
2022-11-22T19:49:30.365Z,8.40
2022-11-22T19:52:04.854Z,8.40
2022-11-22T19:54:40.090Z,8.40
2022-11-22T19:57:15.834Z,8.40
2022-11-22T19:59:48.307Z,8.40
2022-11-22T20:02:20.919Z,8.50
2022-11-22T20:04:54.517Z,8.50
2022-11-22T20:07:30.419Z,8.50
2022-11-22T20:10:04.544Z,8.50
2022-11-22T20:12:38.114Z,8.50
2022-11-22T20:15:11.520Z,8.50
2022-11-22T20:17:44.797Z,8.50
2022-11-22T20:20:17.647Z,8.50
2022-11-22T20:22:50.195Z,8.60
2022-11-22T20:25:22.791Z,8.60
2022-11-22T20:27:55.601Z,8.60
2022-11-22T20:30:29.550Z,8.60
2022-11-22T20:33:03.547Z,8.60
2022-11-22T20:35:36.163Z,8.70
2022-11-22T20:38:08.638Z,8.70
2022-11-22T20:40:41.429Z,8.70
2022-11-22T20:43:14.383Z,8.70
2022-11-22T20:45:47.076Z,8.70
2022-11-22T20:48:19.678Z,8.70
2022-11-22T20:50:53.916Z,8.70
2022-11-22T20:53:26.899Z,8.60
2022-11-22T20:55:59.647Z,8.60
2022-11-22T20:58:32.853Z,8.60
2022-11-22T21:01:08.719Z,8.50
2022-11-22T21:03:41.995Z,8.40
2022-11-22T21:06:16.145Z,8.40
2022-11-22T21:08:49.152Z,8.40
2022-11-22T21:11:24.168Z,8.40
2022-11-22T21:13:58.599Z,8.40
2022-11-22T21:16:31.454Z,8.50
2022-11-22T21:19:06.156Z,8.50
2022-11-22T21:21:38.781Z,8.50
2022-11-22T21:24:14.948Z,8.50
2022-11-22T21:26:47.806Z,8.50
2022-11-22T21:29:20.535Z,8.50
2022-11-22T21:31:53.405Z,8.50
2022-11-22T21:34:26.199Z,8.60
2022-11-22T21:36:58.877Z,8.60
2022-11-22T21:39:31.947Z,8.60
2022-11-22T21:42:04.639Z,8.60
2022-11-22T21:44:37.168Z,8.70
2022-11-22T21:47:09.690Z,8.60
2022-11-22T21:49:42.219Z,8.60
2022-11-22T21:52:14.703Z,8.60
2022-11-22T21:54:47.307Z,8.60
2022-11-22T21:57:20.049Z,8.50
2022-11-22T21:59:52.832Z,8.50
2022-11-22T22:02:25.600Z,8.50
2022-11-22T22:04:58.122Z,8.50
2022-11-22T22:07:51.868Z,8.40
2022-11-22T22:10:26.763Z,8.40
2022-11-22T22:12:59.623Z,8.40
2022-11-22T22:15:32.245Z,8.30
2022-11-22T22:18:05.348Z,8.30
2022-11-22T22:20:37.926Z,8.20
2022-11-22T22:23:10.812Z,8.20
2022-11-22T22:25:43.418Z,8.20
2022-11-22T22:28:15.910Z,8.20
2022-11-22T22:30:49.074Z,8.20
2022-11-22T22:33:21.644Z,8.20
2022-11-22T22:35:54.447Z,8.20
2022-11-22T22:38:27.581Z,8.20
2022-11-22T22:41:02.892Z,8.10
2022-11-22T22:43:38.787Z,8.20
2022-11-22T22:46:14.188Z,8.10
2022-11-22T22:48:49.838Z,8.10
2022-11-22T22:51:30.640Z,8.10
2022-11-22T22:54:05.300Z,8.10
2022-11-22T22:56:37.927Z,8.10
2022-11-22T22:59:11.070Z,8.10
2022-11-22T23:01:43.797Z,8.10
2022-11-22T23:04:16.318Z,8.10
2022-11-22T23:06:48.863Z,8.10
2022-11-22T23:09:22.444Z,8.10
2022-11-22T23:12:10.556Z,8.20
2022-11-22T23:14:42.973Z,8.20
2022-11-22T23:17:15.494Z,8.10
2022-11-22T23:19:48.005Z,8.20
2022-11-22T23:22:25.697Z,8.20
2022-11-22T23:24:58.823Z,8.20
2022-11-22T23:27:31.348Z,8.20
2022-11-22T23:30:04.297Z,8.20
2022-11-22T23:32:36.955Z,8.10
2022-11-22T23:35:10.010Z,8.20
2022-11-22T23:37:42.599Z,8.20
2022-11-22T23:40:15.746Z,8.20
2022-11-22T23:42:48.291Z,8.20
2022-11-22T23:45:20.789Z,8.20
2022-11-22T23:47:54.066Z,8.30
2022-11-22T23:50:26.560Z,8.30
2022-11-22T23:52:59.085Z,8.30
2022-11-22T23:55:31.643Z,8.40
2022-11-22T23:58:04.424Z,8.40
